sensor_id;sensor_type;location;lat;lon;timestamp;temperature;humidity
25112;DHT22;13092;51.996;4.458;2024-03-06T00:01:05;9.50;99.90
25112;DHT22;13092;51.996;4.458;2024-03-06T00:03:34;9.70;99.90
25112;DHT22;13092;51.996;4.458;2024-03-06T00:06:03;9.50;99.90
25112;DHT22;13092;51.996;4.458;2024-03-06T00:08:31;9.50;99.90
25112;DHT22;13092;51.996;4.458;2024-03-06T00:10:59;9.70;99.90
25112;DHT22;13092;51.996;4.458;2024-03-06T00:13:29;9.50;99.90
25112;DHT22;13092;51.996;4.458;2024-03-06T00:15:57;9.50;99.90
25112;DHT22;13092;51.996;4.458;2024-03-06T00:18:25;9.60;99.90
25112;DHT22;13092;51.996;4.458;2024-03-06T00:20:54;9.50;99.90
25112;DHT22;13092;51.996;4.458;2024-03-06T00:23:22;9.50;99.90
25112;DHT22;13092;51.996;4.458;2024-03-06T00:25:50;9.70;99.90
25112;DHT22;13092;51.996;4.458;2024-03-06T00:28:18;9.70;99.90
25112;DHT22;13092;51.996;4.458;2024-03-06T00:30:48;9.50;99.90
25112;DHT22;13092;51.996;4.458;2024-03-06T00:33:16;9.40;99.90
25112;DHT22;13092;51.996;4.458;2024-03-06T00:35:44;9.40;99.90
25112;DHT22;13092;51.996;4.458;2024-03-06T00:38:14;9.50;99.90
25112;DHT22;13092;51.996;4.458;2024-03-06T00:40:42;9.40;99.90
25112;DHT22;13092;51.996;4.458;2024-03-06T00:43:10;9.50;99.90
25112;DHT22;13092;51.996;4.458;2024-03-06T00:45:38;9.30;99.90
25112;DHT22;13092;51.996;4.458;2024-03-06T00:48:08;9.30;99.90
25112;DHT22;13092;51.996;4.458;2024-03-06T00:50:36;9.50;99.90
25112;DHT22;13092;51.996;4.458;2024-03-06T00:53:05;9.40;99.90
25112;DHT22;13092;51.996;4.458;2024-03-06T00:55:34;9.50;99.90
25112;DHT22;13092;51.996;4.458;2024-03-06T00:58:02;9.50;99.90
25112;DHT22;13092;51.996;4.458;2024-03-06T01:00:30;9.50;99.90
25112;DHT22;13092;51.996;4.458;2024-03-06T01:02:58;9.40;99.90
25112;DHT22;13092;51.996;4.458;2024-03-06T01:05:28;9.40;99.90
25112;DHT22;13092;51.996;4.458;2024-03-06T01:07:56;9.60;99.90
25112;DHT22;13092;51.996;4.458;2024-03-06T01:10:25;9.50;99.90
25112;DHT22;13092;51.996;4.458;2024-03-06T01:12:54;9.70;99.90
25112;DHT22;13092;51.996;4.458;2024-03-06T01:15:22;9.50;99.90
25112;DHT22;13092;51.996;4.458;2024-03-06T01:17:50;9.70;99.90
25112;DHT22;13092;51.996;4.458;2024-03-06T01:20:18;9.50;99.90
25112;DHT22;13092;51.996;4.458;2024-03-06T01:22:48;9.60;99.90
25112;DHT22;13092;51.996;4.458;2024-03-06T01:25:16;9.50;99.90
25112;DHT22;13092;51.996;4.458;2024-03-06T01:27:44;9.50;99.90
25112;DHT22;13092;51.996;4.458;2024-03-06T01:30:12;9.60;99.90
25112;DHT22;13092;51.996;4.458;2024-03-06T01:32:40;9.60;99.90
25112;DHT22;13092;51.996;4.458;2024-03-06T01:35:09;9.50;99.90
25112;DHT22;13092;51.996;4.458;2024-03-06T01:37:37;9.40;99.90
25112;DHT22;13092;51.996;4.458;2024-03-06T01:40:08;9.50;99.90
25112;DHT22;13092;51.996;4.458;2024-03-06T01:42:37;9.40;99.90
25112;DHT22;13092;51.996;4.458;2024-03-06T01:45:06;9.50;99.90
25112;DHT22;13092;51.996;4.458;2024-03-06T01:47:35;9.50;99.90
25112;DHT22;13092;51.996;4.458;2024-03-06T01:50:05;9.60;99.90
25112;DHT22;13092;51.996;4.458;2024-03-06T01:52:36;9.50;99.90
25112;DHT22;13092;51.996;4.458;2024-03-06T01:55:06;9.60;99.90
25112;DHT22;13092;51.996;4.458;2024-03-06T01:57:35;9.40;99.90
25112;DHT22;13092;51.996;4.458;2024-03-06T02:00:07;9.30;99.90
25112;DHT22;13092;51.996;4.458;2024-03-06T02:02:41;9.30;99.90
25112;DHT22;13092;51.996;4.458;2024-03-06T02:05:10;9.40;99.90
25112;DHT22;13092;51.996;4.458;2024-03-06T02:07:39;9.40;99.90
25112;DHT22;13092;51.996;4.458;2024-03-06T02:10:09;9.60;99.90
25112;DHT22;13092;51.996;4.458;2024-03-06T02:12:39;9.50;99.90
25112;DHT22;13092;51.996;4.458;2024-03-06T02:15:08;9.50;99.90
25112;DHT22;13092;51.996;4.458;2024-03-06T02:17:40;9.50;99.90
25112;DHT22;13092;51.996;4.458;2024-03-06T02:20:09;9.40;99.90
25112;DHT22;13092;51.996;4.458;2024-03-06T02:22:41;9.40;99.90
25112;DHT22;13092;51.996;4.458;2024-03-06T02:25:09;9.40;99.90
25112;DHT22;13092;51.996;4.458;2024-03-06T02:27:37;9.40;99.90
25112;DHT22;13092;51.996;4.458;2024-03-06T02:30:06;9.50;99.90
25112;DHT22;13092;51.996;4.458;2024-03-06T02:32:34;9.30;99.90
25112;DHT22;13092;51.996;4.458;2024-03-06T02:35:03;9.30;99.90
25112;DHT22;13092;51.996;4.458;2024-03-06T02:37:35;9.20;99.90
25112;DHT22;13092;51.996;4.458;2024-03-06T02:40:08;9.20;99.90
25112;DHT22;13092;51.996;4.458;2024-03-06T02:42:36;9.10;99.90
25112;DHT22;13092;51.996;4.458;2024-03-06T02:45:06;9.00;99.90
25112;DHT22;13092;51.996;4.458;2024-03-06T02:47:35;9.00;99.90
25112;DHT22;13092;51.996;4.458;2024-03-06T02:50:04;9.20;99.90
25112;DHT22;13092;51.996;4.458;2024-03-06T02:52:34;9.10;99.90
25112;DHT22;13092;51.996;4.458;2024-03-06T02:55:03;9.10;99.90
25112;DHT22;13092;51.996;4.458;2024-03-06T02:57:32;9.00;99.90
25112;DHT22;13092;51.996;4.458;2024-03-06T03:00:00;9.00;99.90
25112;DHT22;13092;51.996;4.458;2024-03-06T03:02:29;9.00;99.90
25112;DHT22;13092;51.996;4.458;2024-03-06T03:04:57;8.90;99.90
25112;DHT22;13092;51.996;4.458;2024-03-06T03:07:26;9.20;99.90
25112;DHT22;13092;51.996;4.458;2024-03-06T03:09:54;9.00;99.90
25112;DHT22;13092;51.996;4.458;2024-03-06T03:12:22;8.90;99.90
25112;DHT22;13092;51.996;4.458;2024-03-06T03:14:52;9.00;99.90
25112;DHT22;13092;51.996;4.458;2024-03-06T03:17:20;8.90;99.90
25112;DHT22;13092;51.996;4.458;2024-03-06T03:19:48;8.90;99.90
25112;DHT22;13092;51.996;4.458;2024-03-06T03:22:16;8.80;99.90
25112;DHT22;13092;51.996;4.458;2024-03-06T03:24:44;8.90;99.90
25112;DHT22;13092;51.996;4.458;2024-03-06T03:27:14;8.80;99.90
25112;DHT22;13092;51.996;4.458;2024-03-06T03:29:42;8.70;99.90
25112;DHT22;13092;51.996;4.458;2024-03-06T03:32:12;8.80;99.90
25112;DHT22;13092;51.996;4.458;2024-03-06T03:34:40;8.90;99.90
25112;DHT22;13092;51.996;4.458;2024-03-06T03:37:08;8.80;99.90
25112;DHT22;13092;51.996;4.458;2024-03-06T03:39:36;8.80;99.90
25112;DHT22;13092;51.996;4.458;2024-03-06T03:42:04;8.80;99.90
25112;DHT22;13092;51.996;4.458;2024-03-06T03:44:33;8.80;99.90
25112;DHT22;13092;51.996;4.458;2024-03-06T03:47:01;8.80;99.90
25112;DHT22;13092;51.996;4.458;2024-03-06T03:49:31;9.00;99.90
25112;DHT22;13092;51.996;4.458;2024-03-06T03:51:59;9.00;99.90
25112;DHT22;13092;51.996;4.458;2024-03-06T03:54:27;8.80;99.90
25112;DHT22;13092;51.996;4.458;2024-03-06T03:56:55;8.80;99.90
25112;DHT22;13092;51.996;4.458;2024-03-06T03:59:25;8.80;99.90
25112;DHT22;13092;51.996;4.458;2024-03-06T04:01:53;8.80;99.90
25112;DHT22;13092;51.996;4.458;2024-03-06T04:04:24;8.70;99.90
25112;DHT22;13092;51.996;4.458;2024-03-06T04:06:53;8.80;99.90
25112;DHT22;13092;51.996;4.458;2024-03-06T04:09:21;8.80;99.90
25112;DHT22;13092;51.996;4.458;2024-03-06T04:11:49;8.70;99.90
25112;DHT22;13092;51.996;4.458;2024-03-06T04:14:18;8.50;99.90
25112;DHT22;13092;51.996;4.458;2024-03-06T04:16:47;8.40;99.90
25112;DHT22;13092;51.996;4.458;2024-03-06T04:19:16;8.40;99.90
25112;DHT22;13092;51.996;4.458;2024-03-06T04:21:44;8.40;99.90
25112;DHT22;13092;51.996;4.458;2024-03-06T04:24:13;8.30;99.90
25112;DHT22;13092;51.996;4.458;2024-03-06T04:26:41;8.40;99.90
25112;DHT22;13092;51.996;4.458;2024-03-06T04:29:09;8.30;99.90
25112;DHT22;13092;51.996;4.458;2024-03-06T04:31:37;8.30;99.90
25112;DHT22;13092;51.996;4.458;2024-03-06T04:34:06;8.30;99.90
25112;DHT22;13092;51.996;4.458;2024-03-06T04:36:34;8.10;99.90
25112;DHT22;13092;51.996;4.458;2024-03-06T04:39:02;8.10;99.90
25112;DHT22;13092;51.996;4.458;2024-03-06T04:41:35;8.10;99.90
25112;DHT22;13092;51.996;4.458;2024-03-06T04:44:03;8.00;99.90
25112;DHT22;13092;51.996;4.458;2024-03-06T04:46:31;8.00;99.90
25112;DHT22;13092;51.996;4.458;2024-03-06T04:48:59;8.10;99.90
25112;DHT22;13092;51.996;4.458;2024-03-06T04:51:27;7.90;99.90
25112;DHT22;13092;51.996;4.458;2024-03-06T04:53:56;8.10;99.90
25112;DHT22;13092;51.996;4.458;2024-03-06T04:56:24;7.90;99.90
25112;DHT22;13092;51.996;4.458;2024-03-06T04:58:54;8.00;99.90
25112;DHT22;13092;51.996;4.458;2024-03-06T05:01:22;7.70;99.90
25112;DHT22;13092;51.996;4.458;2024-03-06T05:03:50;8.00;99.90
25112;DHT22;13092;51.996;4.458;2024-03-06T05:06:35;7.80;99.90
25112;DHT22;13092;51.996;4.458;2024-03-06T05:09:21;7.80;99.90
25112;DHT22;13092;51.996;4.458;2024-03-06T05:12:07;7.70;99.90
25112;DHT22;13092;51.996;4.458;2024-03-06T05:14:55;7.70;99.90
25112;DHT22;13092;51.996;4.458;2024-03-06T05:17:41;7.60;99.90
25112;DHT22;13092;51.996;4.458;2024-03-06T05:20:28;7.60;99.90
25112;DHT22;13092;51.996;4.458;2024-03-06T05:23:15;7.80;99.90
25112;DHT22;13092;51.996;4.458;2024-03-06T05:26:01;7.50;99.90
25112;DHT22;13092;51.996;4.458;2024-03-06T05:28:47;7.40;99.90
25112;DHT22;13092;51.996;4.458;2024-03-06T05:31:34;7.70;99.90
25112;DHT22;13092;51.996;4.458;2024-03-06T05:34:19;7.30;99.90
25112;DHT22;13092;51.996;4.458;2024-03-06T05:37:06;7.40;99.90
25112;DHT22;13092;51.996;4.458;2024-03-06T05:39:51;7.50;99.90
25112;DHT22;13092;51.996;4.458;2024-03-06T05:42:37;7.30;99.90
25112;DHT22;13092;51.996;4.458;2024-03-06T05:45:22;7.60;99.90
25112;DHT22;13092;51.996;4.458;2024-03-06T05:48:09;7.30;99.90
25112;DHT22;13092;51.996;4.458;2024-03-06T05:50:55;7.50;99.90
25112;DHT22;13092;51.996;4.458;2024-03-06T05:53:41;7.30;99.90
25112;DHT22;13092;51.996;4.458;2024-03-06T05:56:28;7.20;99.90
25112;DHT22;13092;51.996;4.458;2024-03-06T05:59:13;7.20;99.90
25112;DHT22;13092;51.996;4.458;2024-03-06T06:01:42;7.20;99.90
25112;DHT22;13092;51.996;4.458;2024-03-06T06:04:13;7.20;99.90
25112;DHT22;13092;51.996;4.458;2024-03-06T06:06:41;7.20;99.90
25112;DHT22;13092;51.996;4.458;2024-03-06T06:09:09;7.10;99.90
25112;DHT22;13092;51.996;4.458;2024-03-06T06:11:43;7.10;99.90
25112;DHT22;13092;51.996;4.458;2024-03-06T06:14:11;7.00;99.90
25112;DHT22;13092;51.996;4.458;2024-03-06T06:16:42;7.40;99.90
25112;DHT22;13092;51.996;4.458;2024-03-06T06:19:11;7.00;99.90
25112;DHT22;13092;51.996;4.458;2024-03-06T06:21:39;6.90;99.90
25112;DHT22;13092;51.996;4.458;2024-03-06T06:24:08;6.90;99.90
25112;DHT22;13092;51.996;4.458;2024-03-06T06:26:36;6.90;99.90
25112;DHT22;13092;51.996;4.458;2024-03-06T06:29:04;6.80;99.90
25112;DHT22;13092;51.996;4.458;2024-03-06T06:31:33;6.90;99.90
25112;DHT22;13092;51.996;4.458;2024-03-06T06:34:01;7.00;99.90
25112;DHT22;13092;51.996;4.458;2024-03-06T06:36:30;6.80;99.90
25112;DHT22;13092;51.996;4.458;2024-03-06T06:38:58;6.80;99.90
25112;DHT22;13092;51.996;4.458;2024-03-06T06:41:31;7.00;99.90
25112;DHT22;13092;51.996;4.458;2024-03-06T06:43:59;6.90;99.90
25112;DHT22;13092;51.996;4.458;2024-03-06T06:46:29;6.70;99.90
25112;DHT22;13092;51.996;4.458;2024-03-06T06:48:58;6.70;99.90
25112;DHT22;13092;51.996;4.458;2024-03-06T06:51:26;6.90;99.90
25112;DHT22;13092;51.996;4.458;2024-03-06T06:53:55;6.90;99.90
25112;DHT22;13092;51.996;4.458;2024-03-06T06:56:26;6.50;99.90
25112;DHT22;13092;51.996;4.458;2024-03-06T06:58:55;7.10;99.90
25112;DHT22;13092;51.996;4.458;2024-03-06T07:01:23;6.70;99.90
25112;DHT22;13092;51.996;4.458;2024-03-06T07:03:51;6.70;99.90
25112;DHT22;13092;51.996;4.458;2024-03-06T07:06:19;6.70;99.90
25112;DHT22;13092;51.996;4.458;2024-03-06T07:08:48;6.70;99.90
25112;DHT22;13092;51.996;4.458;2024-03-06T07:11:18;7.00;99.90
25112;DHT22;13092;51.996;4.458;2024-03-06T07:13:48;6.80;99.90
25112;DHT22;13092;51.996;4.458;2024-03-06T07:16:16;6.80;99.90
25112;DHT22;13092;51.996;4.458;2024-03-06T07:18:46;7.00;99.90
25112;DHT22;13092;51.996;4.458;2024-03-06T07:21:15;6.90;99.90
25112;DHT22;13092;51.996;4.458;2024-03-06T07:23:44;7.00;99.90
25112;DHT22;13092;51.996;4.458;2024-03-06T07:26:13;6.90;99.90
25112;DHT22;13092;51.996;4.458;2024-03-06T07:28:43;7.00;99.90
25112;DHT22;13092;51.996;4.458;2024-03-06T07:31:13;7.00;99.90
25112;DHT22;13092;51.996;4.458;2024-03-06T07:33:41;7.20;99.90
25112;DHT22;13092;51.996;4.458;2024-03-06T07:36:09;7.10;99.90
25112;DHT22;13092;51.996;4.458;2024-03-06T07:38:37;7.30;99.90
25112;DHT22;13092;51.996;4.458;2024-03-06T07:41:06;7.00;99.90
25112;DHT22;13092;51.996;4.458;2024-03-06T07:43:34;7.10;99.90
25112;DHT22;13092;51.996;4.458;2024-03-06T07:46:04;7.20;99.90
25112;DHT22;13092;51.996;4.458;2024-03-06T07:48:37;7.60;99.90
25112;DHT22;13092;51.996;4.458;2024-03-06T07:51:05;7.30;99.90
25112;DHT22;13092;51.996;4.458;2024-03-06T07:53:35;7.50;99.90
25112;DHT22;13092;51.996;4.458;2024-03-06T07:56:04;7.40;99.90
25112;DHT22;13092;51.996;4.458;2024-03-06T07:58:32;7.50;99.90
25112;DHT22;13092;51.996;4.458;2024-03-06T08:01:01;7.50;99.90
25112;DHT22;13092;51.996;4.458;2024-03-06T08:03:31;7.70;99.90
25112;DHT22;13092;51.996;4.458;2024-03-06T08:06:00;8.30;99.90
25112;DHT22;13092;51.996;4.458;2024-03-06T08:08:28;7.70;99.90
25112;DHT22;13092;51.996;4.458;2024-03-06T08:10:57;7.70;99.90
25112;DHT22;13092;51.996;4.458;2024-03-06T08:13:25;8.20;99.90
25112;DHT22;13092;51.996;4.458;2024-03-06T08:15:54;7.90;99.90
25112;DHT22;13092;51.996;4.458;2024-03-06T08:18:22;8.00;99.90
25112;DHT22;13092;51.996;4.458;2024-03-06T08:20:52;8.10;99.90
25112;DHT22;13092;51.996;4.458;2024-03-06T08:23:20;8.20;99.90
25112;DHT22;13092;51.996;4.458;2024-03-06T08:25:49;8.20;99.90
25112;DHT22;13092;51.996;4.458;2024-03-06T08:28:17;8.20;99.90
25112;DHT22;13092;51.996;4.458;2024-03-06T08:30:45;8.30;99.90
25112;DHT22;13092;51.996;4.458;2024-03-06T08:33:13;8.30;99.90
25112;DHT22;13092;51.996;4.458;2024-03-06T08:35:42;8.40;99.90
25112;DHT22;13092;51.996;4.458;2024-03-06T08:38:12;8.50;99.90
25112;DHT22;13092;51.996;4.458;2024-03-06T08:40:40;8.30;99.90
25112;DHT22;13092;51.996;4.458;2024-03-06T08:43:12;8.50;99.90
25112;DHT22;13092;51.996;4.458;2024-03-06T08:45:45;8.50;99.90
25112;DHT22;13092;51.996;4.458;2024-03-06T08:48:13;8.70;99.90
25112;DHT22;13092;51.996;4.458;2024-03-06T08:50:41;9.10;99.90
25112;DHT22;13092;51.996;4.458;2024-03-06T08:53:09;8.80;99.90
25112;DHT22;13092;51.996;4.458;2024-03-06T08:55:39;8.70;99.90
25112;DHT22;13092;51.996;4.458;2024-03-06T08:58:07;8.90;99.90
25112;DHT22;13092;51.996;4.458;2024-03-06T09:00:36;9.00;99.90
25112;DHT22;13092;51.996;4.458;2024-03-06T09:03:05;8.80;99.90
25112;DHT22;13092;51.996;4.458;2024-03-06T09:05:35;8.80;99.90
25112;DHT22;13092;51.996;4.458;2024-03-06T09:08:04;8.90;99.90
25112;DHT22;13092;51.996;4.458;2024-03-06T09:10:36;8.90;99.90
25112;DHT22;13092;51.996;4.458;2024-03-06T09:13:06;8.90;99.90
25112;DHT22;13092;51.996;4.458;2024-03-06T09:15:36;9.00;99.90
25112;DHT22;13092;51.996;4.458;2024-03-06T09:18:05;9.00;99.90
25112;DHT22;13092;51.996;4.458;2024-03-06T09:20:34;9.00;99.90
25112;DHT22;13092;51.996;4.458;2024-03-06T09:23:02;9.20;99.90
25112;DHT22;13092;51.996;4.458;2024-03-06T09:25:31;9.10;99.90
25112;DHT22;13092;51.996;4.458;2024-03-06T09:27:59;9.20;99.90
25112;DHT22;13092;51.996;4.458;2024-03-06T09:30:33;9.20;99.90
25112;DHT22;13092;51.996;4.458;2024-03-06T09:33:01;9.20;99.90
25112;DHT22;13092;51.996;4.458;2024-03-06T09:35:32;9.30;99.90
25112;DHT22;13092;51.996;4.458;2024-03-06T09:38:00;9.80;99.90
25112;DHT22;13092;51.996;4.458;2024-03-06T09:40:29;9.10;99.90
25112;DHT22;13092;51.996;4.458;2024-03-06T09:42:59;9.40;99.90
25112;DHT22;13092;51.996;4.458;2024-03-06T09:45:30;9.50;99.90
25112;DHT22;13092;51.996;4.458;2024-03-06T09:48:11;9.60;99.90
25112;DHT22;13092;51.996;4.458;2024-03-06T09:50:43;9.60;99.90
25112;DHT22;13092;51.996;4.458;2024-03-06T09:53:14;9.70;99.90
25112;DHT22;13092;51.996;4.458;2024-03-06T09:55:44;9.90;99.90
25112;DHT22;13092;51.996;4.458;2024-03-06T09:58:14;10.00;99.90
25112;DHT22;13092;51.996;4.458;2024-03-06T10:00:46;9.90;99.90
25112;DHT22;13092;51.996;4.458;2024-03-06T10:03:21;10.10;99.90
25112;DHT22;13092;51.996;4.458;2024-03-06T10:05:49;9.90;99.90
25112;DHT22;13092;51.996;4.458;2024-03-06T10:08:20;10.00;99.90
25112;DHT22;13092;51.996;4.458;2024-03-06T10:10:49;10.10;99.90
25112;DHT22;13092;51.996;4.458;2024-03-06T10:13:17;10.20;99.90
25112;DHT22;13092;51.996;4.458;2024-03-06T10:15:57;10.20;99.90
25112;DHT22;13092;51.996;4.458;2024-03-06T10:18:31;10.20;99.90
25112;DHT22;13092;51.996;4.458;2024-03-06T10:21:01;10.30;99.90
25112;DHT22;13092;51.996;4.458;2024-03-06T10:23:31;10.60;99.90
25112;DHT22;13092;51.996;4.458;2024-03-06T10:25:59;10.70;99.90
25112;DHT22;13092;51.996;4.458;2024-03-06T10:28:27;10.50;99.90
25112;DHT22;13092;51.996;4.458;2024-03-06T10:31:03;10.60;99.90
25112;DHT22;13092;51.996;4.458;2024-03-06T10:33:34;10.50;99.90
25112;DHT22;13092;51.996;4.458;2024-03-06T10:36:03;10.60;99.90
25112;DHT22;13092;51.996;4.458;2024-03-06T10:38:35;10.60;99.90
25112;DHT22;13092;51.996;4.458;2024-03-06T10:41:05;11.00;99.90
25112;DHT22;13092;51.996;4.458;2024-03-06T10:43:36;10.90;99.90
25112;DHT22;13092;51.996;4.458;2024-03-06T10:46:14;10.80;99.90
25112;DHT22;13092;51.996;4.458;2024-03-06T10:48:49;11.30;99.90
25112;DHT22;13092;51.996;4.458;2024-03-06T10:51:19;11.10;99.90
25112;DHT22;13092;51.996;4.458;2024-03-06T10:53:48;11.10;99.90
25112;DHT22;13092;51.996;4.458;2024-03-06T10:56:17;11.30;99.90
25112;DHT22;13092;51.996;4.458;2024-03-06T10:58:47;11.40;99.90
25112;DHT22;13092;51.996;4.458;2024-03-06T11:01:17;11.40;99.90
25112;DHT22;13092;51.996;4.458;2024-03-06T11:03:46;11.50;99.90
25112;DHT22;13092;51.996;4.458;2024-03-06T11:06:17;11.60;99.90
25112;DHT22;13092;51.996;4.458;2024-03-06T11:08:46;11.80;99.90
25112;DHT22;13092;51.996;4.458;2024-03-06T11:11:27;11.90;99.90
25112;DHT22;13092;51.996;4.458;2024-03-06T11:14:01;12.10;99.90
25112;DHT22;13092;51.996;4.458;2024-03-06T11:16:30;12.20;99.90
25112;DHT22;13092;51.996;4.458;2024-03-06T11:19:07;12.10;99.90
25112;DHT22;13092;51.996;4.458;2024-03-06T11:21:51;12.10;99.90
25112;DHT22;13092;51.996;4.458;2024-03-06T11:24:20;12.20;99.90
25112;DHT22;13092;51.996;4.458;2024-03-06T11:26:50;12.20;99.90
25112;DHT22;13092;51.996;4.458;2024-03-06T11:29:19;12.20;99.90
25112;DHT22;13092;51.996;4.458;2024-03-06T11:32:02;12.30;99.90
25112;DHT22;13092;51.996;4.458;2024-03-06T11:34:31;12.50;99.90
25112;DHT22;13092;51.996;4.458;2024-03-06T11:37:03;12.40;99.90
25112;DHT22;13092;51.996;4.458;2024-03-06T11:39:34;12.50;99.90
25112;DHT22;13092;51.996;4.458;2024-03-06T11:42:04;12.60;99.90
25112;DHT22;13092;51.996;4.458;2024-03-06T11:44:36;12.70;99.90
25112;DHT22;13092;51.996;4.458;2024-03-06T11:47:05;12.90;99.90
25112;DHT22;13092;51.996;4.458;2024-03-06T11:49:36;13.00;99.90
25112;DHT22;13092;51.996;4.458;2024-03-06T11:52:09;13.20;99.90
25112;DHT22;13092;51.996;4.458;2024-03-06T11:54:37;13.20;99.90
25112;DHT22;13092;51.996;4.458;2024-03-06T11:57:06;13.20;99.90
25112;DHT22;13092;51.996;4.458;2024-03-06T11:59:35;13.30;99.90
25112;DHT22;13092;51.996;4.458;2024-03-06T12:02:06;13.40;99.90
25112;DHT22;13092;51.996;4.458;2024-03-06T12:04:37;13.40;99.90
25112;DHT22;13092;51.996;4.458;2024-03-06T12:07:06;13.50;99.90
25112;DHT22;13092;51.996;4.458;2024-03-06T12:09:38;13.50;99.90
25112;DHT22;13092;51.996;4.458;2024-03-06T12:12:10;13.40;99.90
25112;DHT22;13092;51.996;4.458;2024-03-06T12:14:40;13.60;99.90
25112;DHT22;13092;51.996;4.458;2024-03-06T12:17:12;13.70;99.90
25112;DHT22;13092;51.996;4.458;2024-03-06T12:19:42;13.70;99.90
25112;DHT22;13092;51.996;4.458;2024-03-06T12:22:12;13.80;99.90
25112;DHT22;13092;51.996;4.458;2024-03-06T12:24:43;13.80;99.90
25112;DHT22;13092;51.996;4.458;2024-03-06T12:27:11;13.90;99.90
25112;DHT22;13092;51.996;4.458;2024-03-06T12:29:40;13.80;99.90
25112;DHT22;13092;51.996;4.458;2024-03-06T12:32:16;13.90;99.90
25112;DHT22;13092;51.996;4.458;2024-03-06T12:34:56;14.10;99.90
25112;DHT22;13092;51.996;4.458;2024-03-06T12:37:29;14.10;99.90
25112;DHT22;13092;51.996;4.458;2024-03-06T12:40:04;14.20;99.90
25112;DHT22;13092;51.996;4.458;2024-03-06T12:42:32;14.20;99.90
25112;DHT22;13092;51.996;4.458;2024-03-06T12:45:00;14.40;99.00
25112;DHT22;13092;51.996;4.458;2024-03-06T12:47:30;14.40;99.90
25112;DHT22;13092;51.996;4.458;2024-03-06T12:49:58;14.50;99.90
25112;DHT22;13092;51.996;4.458;2024-03-06T12:52:27;14.50;98.30
25112;DHT22;13092;51.996;4.458;2024-03-06T12:54:55;14.60;95.90
25112;DHT22;13092;51.996;4.458;2024-03-06T12:57:25;14.70;95.80
25112;DHT22;13092;51.996;4.458;2024-03-06T12:59:54;14.80;92.80
25112;DHT22;13092;51.996;4.458;2024-03-06T13:02:22;14.90;89.50
25112;DHT22;13092;51.996;4.458;2024-03-06T13:04:51;14.80;83.30
25112;DHT22;13092;51.996;4.458;2024-03-06T13:07:22;14.70;79.30
25112;DHT22;13092;51.996;4.458;2024-03-06T13:09:52;14.60;75.10
25112;DHT22;13092;51.996;4.458;2024-03-06T13:12:21;14.50;80.80
25112;DHT22;13092;51.996;4.458;2024-03-06T13:14:56;14.50;79.00
25112;DHT22;13092;51.996;4.458;2024-03-06T13:17:25;14.50;85.00
25112;DHT22;13092;51.996;4.458;2024-03-06T13:19:56;14.50;79.00
25112;DHT22;13092;51.996;4.458;2024-03-06T13:22:24;14.20;80.10
25112;DHT22;13092;51.996;4.458;2024-03-06T13:24:54;14.30;72.50
25112;DHT22;13092;51.996;4.458;2024-03-06T13:27:27;14.00;72.80
25112;DHT22;13092;51.996;4.458;2024-03-06T13:29:57;14.30;76.30
25112;DHT22;13092;51.996;4.458;2024-03-06T13:32:30;14.30;74.60
25112;DHT22;13092;51.996;4.458;2024-03-06T13:34:58;14.40;74.50
25112;DHT22;13092;51.996;4.458;2024-03-06T13:37:27;14.60;85.80
25112;DHT22;13092;51.996;4.458;2024-03-06T13:39:55;14.70;79.40
25112;DHT22;13092;51.996;4.458;2024-03-06T13:42:28;14.70;82.90
25112;DHT22;13092;51.996;4.458;2024-03-06T13:45:00;15.00;69.30
25112;DHT22;13092;51.996;4.458;2024-03-06T13:47:28;15.10;69.60
25112;DHT22;13092;51.996;4.458;2024-03-06T13:49:56;15.20;71.00
25112;DHT22;13092;51.996;4.458;2024-03-06T13:52:27;15.30;69.60
25112;DHT22;13092;51.996;4.458;2024-03-06T13:54:58;15.40;63.00
25112;DHT22;13092;51.996;4.458;2024-03-06T13:57:30;15.50;76.20
25112;DHT22;13092;51.996;4.458;2024-03-06T14:00:05;15.30;48.00
25112;DHT22;13092;51.996;4.458;2024-03-06T14:02:39;15.20;33.10
25112;DHT22;13092;51.996;4.458;2024-03-06T14:05:07;15.30;45.50
25112;DHT22;13092;51.996;4.458;2024-03-06T14:07:35;15.30;40.50
25112;DHT22;13092;51.996;4.458;2024-03-06T14:10:04;15.40;36.20
25112;DHT22;13092;51.996;4.458;2024-03-06T14:12:34;15.30;27.30
25112;DHT22;13092;51.996;4.458;2024-03-06T14:15:06;15.20;26.20
25112;DHT22;13092;51.996;4.458;2024-03-06T14:17:39;15.20;26.30
25112;DHT22;13092;51.996;4.458;2024-03-06T14:20:09;15.20;23.20
25112;DHT22;13092;51.996;4.458;2024-03-06T14:22:39;15.10;22.50
25112;DHT22;13092;51.996;4.458;2024-03-06T14:25:07;15.10;15.20
25112;DHT22;13092;51.996;4.458;2024-03-06T14:27:35;15.00;21.50
25112;DHT22;13092;51.996;4.458;2024-03-06T14:30:06;14.90;29.40
25112;DHT22;13092;51.996;4.458;2024-03-06T14:32:35;14.90;35.70
25112;DHT22;13092;51.996;4.458;2024-03-06T14:35:04;14.90;44.10
25112;DHT22;13092;51.996;4.458;2024-03-06T14:37:33;14.70;34.40
25112;DHT22;13092;51.996;4.458;2024-03-06T14:40:01;14.60;46.30
25112;DHT22;13092;51.996;4.458;2024-03-06T14:42:35;14.50;38.70
25112;DHT22;13092;51.996;4.458;2024-03-06T14:45:06;14.50;35.30
25112;DHT22;13092;51.996;4.458;2024-03-06T14:47:35;14.30;38.60
25112;DHT22;13092;51.996;4.458;2024-03-06T14:50:04;14.20;34.70
25112;DHT22;13092;51.996;4.458;2024-03-06T14:52:33;14.10;38.70
25112;DHT22;13092;51.996;4.458;2024-03-06T14:55:01;14.10;34.90
25112;DHT22;13092;51.996;4.458;2024-03-06T14:57:30;13.90;32.10
25112;DHT22;13092;51.996;4.458;2024-03-06T14:59:58;13.80;30.60
25112;DHT22;13092;51.996;4.458;2024-03-06T15:02:28;13.60;39.50
25112;DHT22;13092;51.996;4.458;2024-03-06T15:04:56;13.70;42.30
25112;DHT22;13092;51.996;4.458;2024-03-06T15:07:25;13.70;42.30
25112;DHT22;13092;51.996;4.458;2024-03-06T15:09:53;13.70;47.50
25112;DHT22;13092;51.996;4.458;2024-03-06T15:12:24;13.70;46.20
25112;DHT22;13092;51.996;4.458;2024-03-06T15:14:53;13.70;52.50
25112;DHT22;13092;51.996;4.458;2024-03-06T15:17:24;13.60;39.90
25112;DHT22;13092;51.996;4.458;2024-03-06T15:19:55;13.60;49.20
25112;DHT22;13092;51.996;4.458;2024-03-06T15:22:24;13.50;42.00
25112;DHT22;13092;51.996;4.458;2024-03-06T15:24:55;13.60;54.90
25112;DHT22;13092;51.996;4.458;2024-03-06T15:27:23;13.40;54.40
25112;DHT22;13092;51.996;4.458;2024-03-06T15:29:51;13.40;57.30
25112;DHT22;13092;51.996;4.458;2024-03-06T15:32:19;13.40;70.50
25112;DHT22;13092;51.996;4.458;2024-03-06T15:34:47;13.40;70.50
25112;DHT22;13092;51.996;4.458;2024-03-06T15:37:16;13.40;59.10
25112;DHT22;13092;51.996;4.458;2024-03-06T15:39:44;13.40;55.40
25112;DHT22;13092;51.996;4.458;2024-03-06T15:42:12;13.40;57.50
25112;DHT22;13092;51.996;4.458;2024-03-06T15:44:40;13.40;60.60
25112;DHT22;13092;51.996;4.458;2024-03-06T15:47:09;13.40;64.80
25112;DHT22;13092;51.996;4.458;2024-03-06T15:49:37;13.40;70.60
25112;DHT22;13092;51.996;4.458;2024-03-06T15:52:05;13.40;68.70
25112;DHT22;13092;51.996;4.458;2024-03-06T15:54:35;13.30;58.90
25112;DHT22;13092;51.996;4.458;2024-03-06T15:57:04;13.30;56.50
25112;DHT22;13092;51.996;4.458;2024-03-06T15:59:33;13.30;58.80